Time;durP1;ratioP1;P1;durP2;ratioP2;P2;SDS_P1;SDS_P2;PMS_P1;PMS_P2;Temp;Humidity;BMP_temperature;BMP_pressure;BME280_temperature;BME280_humidity;BME280_pressure;Samples;Min_cycle;Max_cycle;Signal;HPM_P1;HPM_P2
2022/03/15 00:00:53;;;;;;;0.10;0.10;;;9.00;99.90;;;;;;5010273;28;20526;-68
2022/03/15 00:03:19;;;;;;;0.10;0.10;;;9.10;99.90;;;;;;5010238;28;20018;-69
2022/03/15 00:05:45;;;;;;;0.10;0.10;;;9.10;99.90;;;;;;5009324;28;20049;-68
2022/03/15 00:08:12;;;;;;;0.10;0.10;;;9.10;99.90;;;;;;5010200;28;20022;-67
2022/03/15 00:10:38;;;;;;;0.43;0.43;;;9.00;99.90;;;;;;5009767;28;20096;-68
2022/03/15 00:13:06;;;;;;;0.10;0.10;;;8.90;99.90;;;;;;5009742;28;20542;-68
2022/03/15 00:15:32;;;;;;;0.47;0.47;;;8.90;99.90;;;;;;5009938;28;20084;-67
2022/03/15 00:17:58;;;;;;;0.10;0.10;;;8.90;99.90;;;;;;5009452;28;20040;-68
2022/03/15 00:20:24;;;;;;;0.10;0.10;;;9.00;99.90;;;;;;5009720;28;20026;-67
2022/03/15 00:22:51;;;;;;;0.10;0.10;;;9.00;99.90;;;;;;5016512;28;20500;-67
2022/03/15 00:25:18;;;;;;;0.10;0.10;;;9.00;99.90;;;;;;5033470;28;20029;-67
2022/03/15 00:27:50;;;;;;;0.10;0.10;;;9.10;99.90;;;;;;5032249;28;20425;-67
2022/03/15 00:30:17;;;;;;;0.10;0.10;;;9.10;99.90;;;;;;5033499;28;20095;-67
2022/03/15 00:32:43;;;;;;;0.10;0.10;;;9.00;99.90;;;;;;5023290;28;20113;-68
2022/03/15 00:35:18;;;;;;;0.10;0.10;;;8.90;99.90;;;;;;5013155;28;20029;-69
2022/03/15 00:37:48;;;;;;;0.10;0.10;;;8.80;99.90;;;;;;5013476;28;20037;-68
2022/03/15 00:40:15;;;;;;;0.10;0.10;;;8.80;99.90;;;;;;5013223;28;20557;-68
2022/03/15 00:42:43;;;;;;;0.38;0.38;;;8.80;99.90;;;;;;5012535;28;20036;-69
2022/03/15 00:45:09;;;;;;;0.10;0.10;;;8.90;99.90;;;;;;5011426;28;20025;-69
2022/03/15 00:47:35;;;;;;;0.10;0.10;;;9.00;99.90;;;;;;5013196;28;20028;-69
2022/03/15 00:50:01;;;;;;;0.10;0.10;;;9.00;99.90;;;;;;5011313;28;20034;-68
2022/03/15 00:52:27;;;;;;;0.15;0.15;;;9.00;99.90;;;;;;5013362;28;20037;-68
2022/03/15 00:54:52;;;;;;;0.10;0.10;;;8.90;99.90;;;;;;5014301;28;20025;-68
2022/03/15 00:57:18;;;;;;;0.10;0.10;;;8.80;99.90;;;;;;5025086;28;20565;-69
2022/03/15 00:59:44;;;;;;;0.10;0.10;;;8.80;99.90;;;;;;5013304;28;20498;-67
2022/03/15 01:02:10;;;;;;;0.10;0.10;;;8.90;99.90;;;;;;5013148;28;20459;-69
2022/03/15 01:04:35;;;;;;;0.17;0.17;;;8.90;99.90;;;;;;5012892;28;20495;-68
2022/03/15 01:07:01;;;;;;;0.10;0.10;;;8.90;99.90;;;;;;5022439;28;20029;-67
2022/03/15 01:09:27;;;;;;;0.10;0.10;;;8.90;99.90;;;;;;5033113;28;20044;-67
2022/03/15 01:11:53;;;;;;;0.10;0.10;;;8.90;99.90;;;;;;5032246;28;20036;-67
2022/03/15 01:14:18;;;;;;;0.10;0.10;;;8.90;99.90;;;;;;5032674;28;20116;-67
2022/03/15 01:16:44;;;;;;;0.60;0.60;;;8.90;99.90;;;;;;5030595;28;20109;-68
2022/03/15 01:19:10;;;;;;;4.88;2.05;;;8.90;99.90;;;;;;5021117;28;20128;-67
2022/03/15 01:21:38;;;;;;;0.17;0.17;;;8.80;99.90;;;;;;5012806;28;20022;-67
2022/03/15 01:24:06;;;;;;;0.10;0.10;;;8.70;99.90;;;;;;5012329;28;20034;-67
2022/03/15 01:26:33;;;;;;;0.10;0.10;;;8.80;99.90;;;;;;5012040;28;20091;-66
2022/03/15 01:28:59;;;;;;;0.25;0.25;;;8.90;99.90;;;;;;5012736;28;20053;-67
2022/03/15 01:31:25;;;;;;;0.10;0.10;;;8.90;99.90;;;;;;5012387;28;20030;-68
2022/03/15 01:33:52;;;;;;;0.10;0.10;;;8.90;99.90;;;;;;5011300;28;20030;-68
2022/03/15 01:36:18;;;;;;;0.10;0.10;;;8.70;99.90;;;;;;5012037;28;20033;-67
2022/03/15 01:38:43;;;;;;;0.10;0.10;;;8.60;99.90;;;;;;5011980;28;20017;-67
2022/03/15 01:41:09;;;;;;;0.10;0.10;;;8.60;99.90;;;;;;5011393;28;20037;-67
2022/03/15 01:43:35;;;;;;;0.20;0.20;;;8.60;99.90;;;;;;5012124;28;20383;-67
2022/03/15 01:46:01;;;;;;;0.10;0.10;;;8.70;99.90;;;;;;5012031;28;20033;-68
2022/03/15 01:48:27;;;;;;;0.10;0.10;;;8.70;99.90;;;;;;5011916;28;20022;-67
2022/03/15 01:50:52;;;;;;;0.10;0.10;;;8.70;99.90;;;;;;5012065;28;20030;-68
2022/03/15 01:53:18;;;;;;;0.10;0.10;;;8.70;99.90;;;;;;5010818;28;20037;-68
2022/03/15 01:55:45;;;;;;;0.10;0.10;;;8.70;99.90;;;;;;5011594;28;20026;-68
2022/03/15 01:58:10;;;;;;;0.10;0.10;;;8.70;99.90;;;;;;5010141;28;20120;-68
2022/03/15 02:00:36;;;;;;;0.10;0.10;;;8.70;99.90;;;;;;5012055;28;20550;-68
2022/03/15 02:03:03;;;;;;;1.52;1.27;;;8.70;99.90;;;;;;5011887;28;20061;-67
2022/03/15 02:05:29;;;;;;;0.10;0.10;;;8.80;99.90;;;;;;5010227;28;20454;-67
2022/03/15 02:07:55;;;;;;;0.43;0.43;;;8.70;99.90;;;;;;5021540;28;20431;-68
2022/03/15 02:10:21;;;;;;;0.10;0.10;;;8.60;99.90;;;;;;5012890;28;20499;-68
2022/03/15 02:12:47;;;;;;;0.10;0.10;;;8.60;99.90;;;;;;5010089;28;20061;-69
2022/03/15 02:15:13;;;;;;;1.33;1.33;;;8.60;99.90;;;;;;5022733;28;20079;-68
2022/03/15 02:17:39;;;;;;;0.20;0.20;;;8.60;99.90;;;;;;5056765;22;20052;-73
2022/03/15 02:20:09;;;;;;;0.30;0.30;;;8.60;99.90;;;;;;5043396;28;20095;-75
2022/03/15 02:22:35;;;;;;;0.10;0.10;;;8.60;99.90;;;;;;5049981;28;20059;-72
2022/03/15 02:25:01;;;;;;;0.15;0.15;;;8.60;99.90;;;;;;5042022;28;20417;-72
2022/03/15 02:27:26;;;;;;;0.10;0.10;;;8.70;99.90;;;;;;5050440;28;20032;-72
2022/03/15 02:29:52;;;;;;;0.10;0.10;;;8.60;99.90;;;;;;5050766;28;20032;-72
2022/03/15 02:32:18;;;;;;;0.10;0.10;;;8.70;99.90;;;;;;5030604;28;20045;-72
2022/03/15 02:34:43;;;;;;;0.10;0.10;;;8.50;99.90;;;;;;5026577;28;20037;-72
2022/03/15 02:37:09;;;;;;;0.10;0.10;;;8.40;99.90;;;;;;5032305;28;20032;-72
2022/03/15 02:39:35;;;;;;;0.10;0.10;;;8.50;99.90;;;;;;5051169;28;20025;-72
2022/03/15 02:42:01;;;;;;;0.10;0.10;;;8.40;99.90;;;;;;5022192;28;20137;-74
2022/03/15 02:44:27;;;;;;;0.10;0.10;;;8.40;99.90;;;;;;5010872;28;20057;-73
2022/03/15 02:46:52;;;;;;;0.10;0.10;;;8.30;99.90;;;;;;5010944;28;20052;-72
2022/03/15 02:49:19;;;;;;;0.10;0.10;;;8.40;99.90;;;;;;5025941;28;20037;-73
2022/03/15 02:51:45;;;;;;;0.90;0.90;;;8.40;99.90;;;;;;5010984;28;20213;-72
2022/03/15 02:54:13;;;;;;;0.10;0.10;;;8.40;99.90;;;;;;5010347;28;20399;-73
2022/03/15 02:56:42;;;;;;;0.10;0.10;;;8.50;99.90;;;;;;5030507;28;20025;-73
2022/03/15 02:59:08;;;;;;;0.10;0.10;;;8.50;99.90;;;;;;5021138;28;20064;-72
2022/03/15 03:01:34;;;;;;;0.28;0.28;;;8.60;99.90;;;;;;5011234;28;20044;-73
2022/03/15 03:04:00;;;;;;;0.10;0.10;;;8.50;99.90;;;;;;5011027;28;20551;-72
2022/03/15 03:06:25;;;;;;;0.10;0.10;;;8.40;99.90;;;;;;5010479;28;20468;-73
2022/03/15 03:08:52;;;;;;;0.10;0.10;;;8.40;99.90;;;;;;5011187;28;20482;-73
2022/03/15 03:11:18;;;;;;;0.10;0.10;;;8.40;99.90;;;;;;5010842;28;20486;-72
2022/03/15 03:13:44;;;;;;;0.10;0.10;;;8.40;99.90;;;;;;5016945;28;20075;-72
2022/03/15 03:16:13;;;;;;;1.45;1.45;;;8.40;99.90;;;;;;5040035;28;20026;-72
2022/03/15 03:18:39;;;;;;;0.10;0.10;;;8.40;99.90;;;;;;5023344;28;20067;-72
2022/03/15 03:21:06;;;;;;;0.10;0.10;;;8.50;99.90;;;;;;5042570;28;20033;-72
2022/03/15 03:23:34;;;;;;;0.10;0.10;;;8.40;99.90;;;;;;5041462;28;20485;-72
2022/03/15 03:26:01;;;;;;;0.10;0.10;;;8.40;99.90;;;;;;5023792;28;20087;-73
2022/03/15 03:28:33;;;;;;;1.55;1.35;;;8.40;99.90;;;;;;5010972;28;20519;-73
2022/03/15 03:31:00;;;;;;;9.30;3.63;;;8.40;99.90;;;;;;5026309;28;20036;-73
2022/03/15 03:33:26;;;;;;;0.10;0.10;;;8.30;99.90;;;;;;5025259;28;20067;-72
2022/03/15 03:35:52;;;;;;;4.80;4.32;;;8.30;99.90;;;;;;5010349;28;20053;-73
2022/03/15 03:38:18;;;;;;;0.20;0.20;;;8.30;99.90;;;;;;5016991;28;20183;-75
2022/03/15 03:40:44;;;;;;;0.20;0.20;;;8.20;99.90;;;;;;5030280;28;20543;-72
2022/03/15 03:43:10;;;;;;;0.10;0.10;;;8.20;99.90;;;;;;5013942;28;20029;-73
2022/03/15 03:45:36;;;;;;;0.10;0.10;;;8.30;99.90;;;;;;5010518;28;20034;-73
2022/03/15 03:48:02;;;;;;;0.20;0.20;;;8.30;99.90;;;;;;5010474;28;20636;-73
2022/03/15 03:50:28;;;;;;;0.10;0.10;;;8.30;99.90;;;;;;5010631;28;20040;-72
2022/03/15 03:52:54;;;;;;;0.10;0.10;;;8.30;99.90;;;;;;5029731;28;20029;-72
2022/03/15 03:55:20;;;;;;;0.10;0.10;;;8.30;99.90;;;;;;5030345;28;20463;-73
2022/03/15 03:57:45;;;;;;;0.10;0.10;;;8.20;99.90;;;;;;5033817;28;20060;-73
2022/03/15 04:00:11;;;;;;;0.20;0.20;;;8.30;99.90;;;;;;5028924;28;20456;-73
2022/03/15 04:02:37;;;;;;;0.10;0.10;;;8.20;99.90;;;;;;5014167;28;20093;-73
2022/03/15 04:05:03;;;;;;;0.10;0.10;;;8.10;99.90;;;;;;5014254;28;20113;-73
2022/03/15 04:07:29;;;;;;;0.10;0.10;;;8.00;99.90;;;;;;5014036;28;20033;-72
2022/03/15 04:09:55;;;;;;;0.10;0.10;;;8.00;99.90;;;;;;5013354;28;20034;-73
2022/03/15 04:12:22;;;;;;;0.10;0.10;;;8.00;99.90;;;;;;5012822;28;20469;-72
2022/03/15 04:14:48;;;;;;;0.10;0.10;;;8.10;99.90;;;;;;5037580;28;20032;-73
2022/03/15 04:17:14;;;;;;;0.10;0.10;;;8.00;99.90;;;;;;5045728;28;20025;-75
2022/03/15 04:19:40;;;;;;;0.10;0.10;;;8.00;99.90;;;;;;5032391;28;20037;-72
2022/03/15 04:22:06;;;;;;;0.10;0.10;;;8.00;99.90;;;;;;5033469;28;20482;-72
2022/03/15 04:24:32;;;;;;;0.10;0.10;;;8.10;99.90;;;;;;5031975;28;20075;-72
2022/03/15 04:27:01;;;;;;;0.40;0.40;;;8.10;99.90;;;;;;5031322;28;20021;-72
2022/03/15 04:29:27;;;;;;;0.10;0.10;;;8.20;99.90;;;;;;5033538;28;20514;-71
2022/03/15 04:31:53;;;;;;;1.85;1.75;;;8.20;99.90;;;;;;5033557;28;20524;-72
2022/03/15 04:34:19;;;;;;;0.10;0.10;;;8.10;99.90;;;;;;5046190;28;20112;-72
2022/03/15 04:36:45;;;;;;;0.15;0.15;;;8.10;99.90;;;;;;5017729;28;20045;-73
2022/03/15 04:39:12;;;;;;;0.10;0.10;;;8.10;99.90;;;;;;5013996;28;20018;-72
2022/03/15 04:41:38;;;;;;;0.10;0.10;;;8.10;99.90;;;;;;5013701;28;20014;-73
2022/03/15 04:44:05;;;;;;;0.10;0.10;;;8.10;99.90;;;;;;5013883;28;20029;-72
2022/03/15 04:46:32;;;;;;;0.10;0.10;;;8.10;99.90;;;;;;5013177;28;20109;-74
2022/03/15 04:48:58;;;;;;;0.10;0.10;;;8.20;99.90;;;;;;5014161;28;20029;-72
2022/03/15 04:51:24;;;;;;;0.17;0.17;;;8.20;99.90;;;;;;5013903;28;20030;-73
2022/03/15 04:53:51;;;;;;;0.10;0.10;;;8.30;99.90;;;;;;5027491;28;20170;-73
2022/03/15 04:56:18;;;;;;;0.10;0.10;;;8.30;99.90;;;;;;5030687;28;20083;-73
2022/03/15 04:58:44;;;;;;;0.10;0.10;;;8.40;99.90;;;;;;5032971;28;20097;-71
2022/03/15 05:01:10;;;;;;;0.55;0.55;;;8.40;99.90;;;;;;5032852;28;20029;-73
2022/03/15 05:03:35;;;;;;;0.10;0.10;;;8.30;99.90;;;;;;5013525;28;20109;-73
2022/03/15 05:06:02;;;;;;;0.20;0.20;;;8.20;99.90;;;;;;5012935;28;20577;-73
2022/03/15 05:08:28;;;;;;;0.10;0.10;;;8.20;99.90;;;;;;5013420;28;20072;-73
2022/03/15 05:11:06;;;;;;;0.47;0.47;;;8.20;99.90;;;;;;5013186;28;20030;-73
2022/03/15 05:13:44;;;;;;;0.10;0.10;;;8.20;99.90;;;;;;5016497;28;20038;-71
2022/03/15 05:16:17;;;;;;;0.10;0.10;;;8.10;99.90;;;;;;5052229;28;20025;-73
2022/03/15 05:18:44;;;;;;;0.10;0.10;;;8.00;99.90;;;;;;5044875;28;20424;-72
2022/03/15 05:21:14;;;;;;;0.10;0.10;;;7.90;99.90;;;;;;5015516;28;20586;-72
2022/03/15 05:23:41;;;;;;;0.10;0.10;;;8.00;99.90;;;;;;5028506;28;20589;-71
2022/03/15 05:26:06;;;;;;;0.10;0.10;;;8.00;99.90;;;;;;5032642;28;20129;-72
2022/03/15 05:28:32;;;;;;;0.10;0.10;;;8.00;99.90;;;;;;5033272;28;20471;-73
2022/03/15 05:30:58;;;;;;;0.10;0.10;;;8.00;99.90;;;;;;5023556;28;20029;-73
2022/03/15 05:33:24;;;;;;;0.10;0.10;;;8.10;99.90;;;;;;5040957;28;20529;-73
2022/03/15 05:35:50;;;;;;;0.10;0.10;;;8.10;99.90;;;;;;5052231;28;20100;-72
2022/03/15 05:38:16;;;;;;;0.10;0.10;;;8.10;99.90;;;;;;5022818;28;20361;-73
2022/03/15 05:40:42;;;;;;;0.38;0.38;;;8.20;99.90;;;;;;5013077;28;20502;-72
2022/03/15 05:43:08;;;;;;;0.13;0.13;;;8.10;99.90;;;;;;5013095;28;20022;-72
2022/03/15 05:45:34;;;;;;;0.32;0.32;;;8.10;99.90;;;;;;5012238;28;20029;-72
2022/03/15 05:48:00;;;;;;;0.10;0.10;;;8.10;99.90;;;;;;5012277;28;20487;-72
2022/03/15 05:50:26;;;;;;;4.95;2.53;;;8.10;99.90;;;;;;5012864;28;20072;-72
2022/03/15 05:52:51;;;;;;;1.13;0.55;;;8.10;99.90;;;;;;5016964;28;20026;-72
2022/03/15 05:55:17;;;;;;;0.10;0.10;;;8.00;99.90;;;;;;5030441;28;20410;-73
2022/03/15 05:57:43;;;;;;;0.10;0.10;;;8.10;99.90;;;;;;5032181;28;20025;-71
2022/03/15 06:00:13;;;;;;;0.10;0.10;;;8.10;99.90;;;;;;5030952;28;20040;-73
2022/03/15 06:02:39;;;;;;;0.10;0.10;;;8.10;99.90;;;;;;5018162;28;20022;-73
2022/03/15 06:05:06;;;;;;;0.10;0.10;;;8.20;99.90;;;;;;5012075;28;20030;-73
2022/03/15 06:07:31;;;;;;;0.10;0.10;;;8.20;99.90;;;;;;5012377;28;20033;-72
2022/03/15 06:09:57;;;;;;;0.10;0.10;;;8.30;99.90;;;;;;5011603;28;20026;-73
2022/03/15 06:12:24;;;;;;;0.10;0.10;;;8.30;99.90;;;;;;5011953;28;20105;-73
2022/03/15 06:14:50;;;;;;;0.10;0.10;;;8.20;99.90;;;;;;5035843;28;20033;-74
2022/03/15 06:17:16;;;;;;;0.10;0.10;;;8.30;99.90;;;;;;5054264;28;20484;-71
2022/03/15 06:19:41;;;;;;;0.10;0.10;;;8.30;99.90;;;;;;5037053;28;20112;-72
2022/03/15 06:22:07;;;;;;;0.40;0.40;;;8.30;99.90;;;;;;5032430;28;20036;-73
2022/03/15 06:24:33;;;;;;;0.10;0.10;;;8.30;99.90;;;;;;5033121;28;20498;-75
2022/03/15 06:26:58;;;;;;;1.30;1.27;;;8.20;99.90;;;;;;5026060;28;20575;-74
2022/03/15 06:29:25;;;;;;;0.10;0.10;;;7.90;99.90;;;;;;5030359;28;20044;-75
2022/03/15 06:31:53;;;;;;;0.20;0.20;;;7.70;99.90;;;;;;5029439;28;20029;-75
2022/03/15 06:34:19;;;;;;;0.52;0.52;;;7.70;99.90;;;;;;5032100;28;20033;-74
2022/03/15 06:36:45;;;;;;;0.20;0.20;;;7.80;99.90;;;;;;5032195;28;20057;-75
2022/03/15 06:39:11;;;;;;;0.10;0.10;;;7.90;99.90;;;;;;5038612;28;20063;-74
2022/03/15 06:41:39;;;;;;;0.17;0.17;;;8.10;99.90;;;;;;5034310;28;20494;-76
2022/03/15 06:44:05;;;;;;;0.10;0.10;;;8.00;99.90;;;;;;5031917;28;20088;-75
2022/03/15 06:46:32;;;;;;;0.10;0.10;;;7.80;99.90;;;;;;5021503;28;20040;-73
2022/03/15 06:48:58;;;;;;;0.10;0.10;;;8.00;99.90;;;;;;5021327;28;20027;-75
2022/03/15 06:51:24;;;;;;;0.10;0.10;;;8.20;99.90;;;;;;5032259;28;20022;-74
2022/03/15 06:53:50;;;;;;;0.10;0.10;;;8.30;99.90;;;;;;5023211;28;20041;-73
2022/03/15 06:56:16;;;;;;;0.10;0.10;;;7.50;99.90;;;;;;5027798;28;20133;-72
2022/03/15 06:58:43;;;;;;;0.13;0.13;;;8.50;99.90;;;;;;5031187;28;20025;-75
2022/03/15 07:01:09;;;;;;;0.10;0.10;;;8.50;99.90;;;;;;5032073;28;20064;-73
2022/03/15 07:03:35;;;;;;;0.10;0.10;;;8.60;99.90;;;;;;5029957;28;20060;-73
2022/03/15 07:06:01;;;;;;;0.10;0.10;;;8.60;99.90;;;;;;5011350;28;20029;-73
2022/03/15 07:08:27;;;;;;;0.32;0.32;;;8.60;99.90;;;;;;5011320;28;20037;-74
2022/03/15 07:10:53;;;;;;;0.10;0.10;;;8.60;99.90;;;;;;5010902;28;20117;-75
2022/03/15 07:13:19;;;;;;;0.30;0.30;;;8.70;99.90;;;;;;5022866;28;20606;-71
2022/03/15 07:19:20;;;;;;;0.10;0.10;;;8.90;99.90;;;;;;5040168;28;20132;-79
2022/03/15 07:21:46;;;;;;;0.10;0.10;;;8.90;99.90;;;;;;5037579;28;20422;-78
2022/03/15 07:24:12;;;;;;;0.20;0.20;;;9.20;99.90;;;;;;5016159;28;20388;-78
2022/03/15 07:26:37;;;;;;;0.28;0.28;;;9.00;99.90;;;;;;5040767;28;20157;-79
2022/03/15 07:29:03;;;;;;;0.10;0.10;;;9.00;99.90;;;;;;5031665;28;20029;-79
2022/03/15 07:31:29;;;;;;;0.10;0.10;;;9.00;99.90;;;;;;5040449;22;20041;-74
2022/03/15 07:33:55;;;;;;;0.15;0.15;;;9.10;99.90;;;;;;5028796;28;20009;-73
2022/03/15 07:36:21;;;;;;;0.40;0.40;;;9.20;99.90;;;;;;5020607;28;20482;-74
2022/03/15 07:38:48;;;;;;;0.10;0.10;;;9.30;99.90;;;;;;5011996;28;20404;-73
2022/03/15 07:41:16;;;;;;;1.00;1.00;;;9.30;99.90;;;;;;5029028;28;20159;-74
2022/03/15 07:43:44;;;;;;;0.10;0.10;;;9.30;99.90;;;;;;5029349;28;20103;-73
2022/03/15 07:46:10;;;;;;;0.52;0.52;;;9.30;99.90;;;;;;5025938;28;20057;-74
2022/03/15 07:48:36;;;;;;;0.10;0.10;;;9.30;99.90;;;;;;5028851;28;20060;-74
2022/03/15 07:51:02;;;;;;;0.10;0.10;;;9.30;99.90;;;;;;5026665;28;20041;-74
2022/03/15 07:53:28;;;;;;;0.10;0.10;;;9.40;99.90;;;;;;5023816;28;20171;-75
2022/03/15 07:55:54;;;;;;;0.10;0.10;;;9.90;99.90;;;;;;5024795;28;20116;-75
2022/03/15 07:58:19;;;;;;;0.10;0.10;;;9.40;99.90;;;;;;5029323;28;20033;-74
2022/03/15 08:00:46;;;;;;;0.10;0.10;;;9.40;99.90;;;;;;5030322;28;20581;-74
2022/03/15 08:03:12;;;;;;;0.10;0.10;;;9.50;99.90;;;;;;5028790;28;20032;-73
2022/03/15 08:05:38;;;;;;;0.10;0.10;;;9.50;99.90;;;;;;5015206;28;20386;-75
2022/03/15 08:08:06;;;;;;;0.10;0.10;;;9.60;99.90;;;;;;5027818;28;20103;-76
2022/03/15 08:10:32;;;;;;;0.10;0.10;;;9.70;99.90;;;;;;5025470;28;20029;-77
2022/03/15 08:12:57;;;;;;;0.10;0.10;;;9.70;99.90;;;;;;5028540;28;20144;-77
2022/03/15 08:15:23;;;;;;;0.65;0.65;;;9.80;99.90;;;;;;5012437;28;20030;-78
2022/03/15 08:17:49;;;;;;;0.45;0.45;;;9.80;99.90;;;;;;5022502;28;20492;-75
2022/03/15 08:20:18;;;;;;;0.10;0.10;;;9.90;99.90;;;;;;5028505;28;20364;-75
2022/03/15 08:22:44;;;;;;;0.10;0.10;;;10.00;99.90;;;;;;5023196;28;20546;-75
2022/03/15 08:25:10;;;;;;;0.10;0.10;;;10.10;99.90;;;;;;5029365;28;20395;-74
2022/03/15 08:27:36;;;;;;;0.10;0.10;;;10.10;99.90;;;;;;5028493;28;20087;-75
2022/03/15 08:30:03;;;;;;;0.10;0.10;;;10.30;99.90;;;;;;5029272;28;20033;-74
2022/03/15 08:32:28;;;;;;;0.10;0.10;;;10.40;99.90;;;;;;5029289;28;20029;-75
2022/03/15 08:34:54;;;;;;;0.30;0.30;;;10.50;99.90;;;;;;5031406;28;20445;-78
2022/03/15 08:37:20;;;;;;;0.10;0.10;;;10.60;99.90;;;;;;5024828;28;20029;-78
2022/03/15 08:39:46;;;;;;;0.10;0.10;;;10.70;99.90;;;;;;5024582;28;20017;-74
2022/03/15 08:42:11;;;;;;;0.10;0.10;;;10.80;99.90;;;;;;5029793;28;20032;-74
2022/03/15 08:44:38;;;;;;;0.10;0.10;;;10.90;99.90;;;;;;5032405;28;20391;-75
2022/03/15 08:47:03;;;;;;;0.10;0.10;;;11.00;99.90;;;;;;5031536;28;20026;-73
2022/03/15 08:49:29;;;;;;;0.10;0.10;;;11.00;99.90;;;;;;5023687;28;20540;-75
2022/03/15 08:51:55;;;;;;;0.10;0.10;;;11.10;99.90;;;;;;5022883;28;20025;-77
2022/03/15 08:54:22;;;;;;;0.10;0.10;;;11.20;99.90;;;;;;5029798;28;20033;-75
2022/03/15 08:56:48;;;;;;;0.10;0.10;;;11.20;99.90;;;;;;5026963;28;20033;-77
2022/03/15 08:59:15;;;;;;;0.10;0.10;;;11.30;99.90;;;;;;5021955;28;20037;-74
2022/03/15 09:01:42;;;;;;;0.10;0.10;;;11.30;99.90;;;;;;5032234;28;20026;-75
2022/03/15 09:04:08;;;;;;;0.10;0.10;;;11.20;99.90;;;;;;5029520;28;20478;-73
2022/03/15 09:06:34;;;;;;;0.10;0.10;;;11.20;99.90;;;;;;5024088;28;20041;-76
2022/03/15 09:09:00;;;;;;;0.10;0.10;;;11.30;99.90;;;;;;5029401;28;20039;-74
2022/03/15 09:11:31;;;;;;;0.10;0.10;;;11.20;99.90;;;;;;5032494;28;20112;-75
2022/03/15 09:13:57;;;;;;;0.10;0.10;;;11.30;99.90;;;;;;5031652;28;20486;-74
2022/03/15 09:16:23;;;;;;;0.10;0.10;;;11.30;99.90;;;;;;5030558;28;20037;-75
2022/03/15 09:18:50;;;;;;;0.10;0.10;;;11.30;99.90;;;;;;5030522;28;20557;-73
2022/03/15 09:21:16;;;;;;;0.10;0.10;;;11.30;99.90;;;;;;5030826;28;20076;-73
2022/03/15 09:23:42;;;;;;;0.10;0.10;;;11.30;99.90;;;;;;5030495;28;20108;-75
2022/03/15 09:26:07;;;;;;;0.10;0.10;;;11.30;99.90;;;;;;5028635;28;20105;-74
2022/03/15 09:28:33;;;;;;;0.10;0.10;;;11.40;99.90;;;;;;5027030;28;20156;-71
2022/03/15 09:31:01;;;;;;;0.10;0.10;;;11.50;99.90;;;;;;5027663;28;20080;-74
2022/03/15 09:33:30;;;;;;;0.10;0.10;;;11.50;99.90;;;;;;5026496;28;20037;-74
2022/03/15 09:35:56;;;;;;;0.10;0.10;;;11.60;99.90;;;;;;5029137;28;20041;-77
2022/03/15 09:38:21;;;;;;;0.10;0.10;;;11.70;99.90;;;;;;5032429;28;20097;-75
2022/03/15 09:40:53;;;;;;;0.10;0.10;;;11.60;99.90;;;;;;5028101;28;20584;-74
2022/03/15 09:43:23;;;;;;;0.10;0.10;;;11.40;99.90;;;;;;5031174;28;20431;-74
2022/03/15 09:45:51;;;;;;;0.10;0.10;;;11.30;99.90;;;;;;5025034;28;20117;-75
2022/03/15 09:48:22;;;;;;;0.10;0.10;;;11.20;99.90;;;;;;5025682;28;20022;-74
2022/03/15 09:50:49;;;;;;;0.10;0.10;;;11.20;99.90;;;;;;5025842;28;20018;-74
2022/03/15 09:53:16;;;;;;;0.10;0.10;;;11.30;99.90;;;;;;5024698;28;20060;-73
2022/03/15 09:55:46;;;;;;;0.75;0.75;;;11.30;99.90;;;;;;5031322;28;20101;-75
2022/03/15 09:58:18;;;;;;;0.10;0.10;;;11.20;99.90;;;;;;5026775;28;20045;-72
2022/03/15 10:00:44;;;;;;;0.10;0.10;;;11.10;99.90;;;;;;5027427;28;20026;-73
2022/03/15 10:03:10;;;;;;;0.10;0.10;;;11.20;99.90;;;;;;5029313;28;20033;-71
2022/03/15 10:05:36;;;;;;;0.20;0.20;;;11.20;99.90;;;;;;5027079;28;20021;-75
2022/03/15 10:08:03;;;;;;;0.10;0.10;;;11.30;99.90;;;;;;5031244;28;20021;-74
2022/03/15 10:10:29;;;;;;;0.17;0.17;;;11.30;99.90;;;;;;5032315;28;20021;-75
2022/03/15 10:12:55;;;;;;;0.10;0.10;;;11.30;99.90;;;;;;5030275;28;20103;-74
2022/03/15 10:15:22;;;;;;;0.10;0.10;;;11.30;99.90;;;;;;5029176;28;20029;-77
2022/03/15 10:17:59;;;;;;;0.10;0.10;;;11.30;99.90;;;;;;5024911;28;20033;-76
2022/03/15 10:20:28;;;;;;;0.10;0.10;;;11.30;99.90;;;;;;5027406;28;20025;-72
2022/03/15 10:23:03;;;;;;;0.10;0.10;;;11.30;99.90;;;;;;5028992;28;20013;-72
2022/03/15 10:25:32;;;;;;;0.10;0.10;;;11.40;99.90;;;;;;5024172;28;20479;-75
2022/03/15 10:27:59;;;;;;;0.10;0.10;;;11.50;99.90;;;;;;5027550;28;20032;-75
2022/03/15 10:30:28;;;;;;;0.10;0.10;;;11.60;99.90;;;;;;5025717;28;20047;-74
2022/03/15 10:32:55;;;;;;;0.25;0.25;;;11.70;99.90;;;;;;5033157;28;20021;-75
2022/03/15 10:35:24;;;;;;;0.10;0.10;;;11.60;99.90;;;;;;5023236;28;20083;-77
2022/03/15 10:37:51;;;;;;;1.75;1.65;;;11.60;99.90;;;;;;5029800;28;20024;-74
2022/03/15 10:40:19;;;;;;;0.10;0.10;;;11.60;99.90;;;;;;5030177;28;20067;-74
2022/03/15 10:42:47;;;;;;;0.63;0.63;;;11.60;99.90;;;;;;5024817;28;20021;-74
2022/03/15 10:45:20;;;;;;;0.10;0.10;;;11.40;99.90;;;;;;5031292;28;20022;-73
2022/03/15 10:47:48;;;;;;;0.65;0.65;;;11.40;99.90;;;;;;5028331;28;20033;-75
2022/03/15 10:50:16;;;;;;;0.10;0.10;;;11.40;99.90;;;;;;5028896;28;20100;-74
2022/03/15 10:52:44;;;;;;;0.40;0.40;;;11.40;99.90;;;;;;5026205;28;20060;-74
2022/03/15 10:55:26;;;;;;;0.25;0.25;;;11.30;99.90;;;;;;5030059;28;20044;-74
2022/03/15 10:57:53;;;;;;;0.10;0.10;;;11.20;99.90;;;;;;5030760;28;20021;-73
2022/03/15 11:00:22;;;;;;;0.10;0.10;;;11.30;99.90;;;;;;5024684;28;20078;-75
2022/03/15 11:02:50;;;;;;;2.08;1.98;;;11.20;99.90;;;;;;5030902;28;20021;-77
2022/03/15 11:05:27;;;;;;;0.10;0.10;;;11.20;99.90;;;;;;5032683;28;20037;-73
2022/03/15 11:07:54;;;;;;;0.10;0.10;;;11.30;99.90;;;;;;5032257;28;20033;-76
2022/03/15 11:10:20;;;;;;;0.10;0.10;;;11.30;99.90;;;;;;5028944;28;20477;-74
2022/03/15 11:12:57;;;;;;;0.10;0.10;;;11.50;99.90;;;;;;5027923;28;20124;-74
2022/03/15 11:15:28;;;;;;;0.10;0.10;;;11.50;99.90;;;;;;5027464;28;20029;-77
2022/03/15 11:17:57;;;;;;;0.10;0.10;;;11.40;99.90;;;;;;5023723;28;20486;-75
2022/03/15 11:20:25;;;;;;;0.10;0.10;;;11.30;99.90;;;;;;5029208;28;20033;-78
2022/03/15 11:22:53;;;;;;;0.10;0.10;;;11.20;99.90;;;;;;5031345;28;20097;-76
2022/03/15 11:25:21;;;;;;;0.10;0.10;;;11.10;99.90;;;;;;5029154;28;20661;-75
2022/03/15 11:27:53;;;;;;;0.10;0.10;;;11.20;99.90;;;;;;5021917;28;20375;-74
2022/03/15 11:30:20;;;;;;;0.10;0.10;;;11.20;99.90;;;;;;5021410;28;20036;-75
2022/03/15 11:32:46;;;;;;;0.10;0.10;;;11.20;99.90;;;;;;5020663;28;20049;-74
2022/03/15 11:35:14;;;;;;;0.10;0.10;;;11.30;99.90;;;;;;5022472;28;20021;-72
2022/03/15 11:37:42;;;;;;;0.10;0.10;;;11.20;99.90;;;;;;5018431;28;20030;-73
2022/03/15 11:40:11;;;;;;;0.10;0.10;;;11.30;99.90;;;;;;5048673;28;20021;-74
2022/03/15 11:42:42;;;;;;;0.10;0.10;;;11.10;99.90;;;;;;5025643;28;20021;-71
2022/03/15 11:45:38;;;;;;;0.47;0.47;;;11.20;99.90;;;;;;5021864;28;20658;-72
2022/03/15 11:48:15;;;;;;;0.10;0.10;;;11.20;99.90;;;;;;5021378;28;20021;-73
2022/03/15 11:51:15;;;;;;;0.25;0.25;;;11.20;99.90;;;;;;5023144;28;20025;-75
2022/03/15 11:53:57;;;;;;;0.10;0.10;;;11.30;99.90;;;;;;5022780;28;20018;-73
2022/03/15 11:56:35;;;;;;;0.20;0.20;;;11.20;99.90;;;;;;5020032;28;20063;-73
2022/03/15 11:59:00;;;;;;;0.10;0.10;;;11.20;99.90;;;;;;5021803;28;20025;-73
2022/03/15 12:01:28;;;;;;;2.30;2.20;;;11.30;99.90;;;;;;5019032;28;20478;-74
2022/03/15 12:03:59;;;;;;;0.10;0.10;;;11.30;99.90;;;;;;5021269;28;20487;-74
2022/03/15 12:06:26;;;;;;;0.10;0.10;;;11.30;99.90;;;;;;5020210;28;20034;-72
2022/03/15 12:08:57;;;;;;;0.10;0.10;;;11.40;99.90;;;;;;5023174;28;20025;-72
2022/03/15 12:11:42;;;;;;;0.10;0.10;;;11.40;99.90;;;;;;5020684;28;20037;-73
2022/03/15 12:14:09;;;;;;;0.20;0.20;;;11.50;99.90;;;;;;5022414;28;20033;-74
2022/03/15 12:16:47;;;;;;;0.10;0.10;;;11.40;99.90;;;;;;5019782;28;20035;-74
2022/03/15 12:22:00;;;;;;;0.10;0.10;;;11.50;99.90;;;;;;5029393;28;20025;-71
2022/03/15 12:24:32;;;;;;;0.10;0.10;;;11.50;99.90;;;;;;5024364;28;20104;-74
2022/03/15 12:27:15;;;;;;;0.10;0.10;;;11.50;99.90;;;;;;5028997;28;20044;-75
2022/03/15 12:29:51;;;;;;;0.20;0.20;;;11.50;99.90;;;;;;5029120;28;20041;-76
2022/03/15 12:32:20;;;;;;;0.10;0.10;;;11.40;99.90;;;;;;5028139;28;20328;-74
2022/03/15 12:34:51;;;;;;;0.10;0.10;;;11.10;99.90;;;;;;5035705;28;20029;-72
2022/03/15 12:37:30;;;;;;;0.10;0.10;;;10.90;99.90;;;;;;5035723;28;20025;-73
2022/03/15 12:39:57;;;;;;;0.10;0.10;;;11.00;99.90;;;;;;5027595;28;20072;-73
2022/03/15 12:42:24;;;;;;;0.22;0.22;;;11.00;99.90;;;;;;5032612;28;20026;-73
2022/03/15 12:44:52;;;;;;;0.10;0.10;;;11.00;99.90;;;;;;5033014;28;20041;-73
2022/03/15 12:47:21;;;;;;;0.95;0.95;;;11.00;99.90;;;;;;5026565;28;20029;-74
2022/03/15 12:50:09;;;;;;;0.10;0.10;;;11.00;99.90;;;;;;5030740;28;20498;-71
2022/03/15 12:52:58;;;;;;;0.10;0.10;;;11.00;99.90;;;;;;5030901;28;20041;-71
2022/03/15 12:55:26;;;;;;;0.10;0.10;;;11.10;99.90;;;;;;5028815;28;20040;-73
2022/03/15 12:57:56;;;;;;;0.10;0.10;;;11.10;99.90;;;;;;5026465;28;20037;-72
2022/03/15 13:00:24;;;;;;;0.10;0.10;;;11.00;99.90;;;;;;5031525;28;20482;-73